Grande Prairie, Canada
Current Conditions -  °F | °C
As of 11:00 PM on Saturday 25 Oct 2014 (Local Time) from CYQU Reporting Station
Light Snow Light Snow  
Wind Chill: 24°   Ceiling: 4000
Heat Index: 34°   Visibility: 15mi
Dew Point: 32°   Wind: 15mph
Humidity: 93%   Direction: 70°ENE
Pressure: 29.55"   Gusts: NA
Location:  55.17°N, 118.79°W
Report Text: CYQU 260500Z 07013KT 15SM -RASN SCT008 BKN040 OVC055 01/00 A2955 RMK SC3SC2SC3 SLP037
Loading
Personal Weather Stations






























Interactive Weather Map
Tropical Storm Tracking
New forecast layout! Learn more

10-Day Weather Forecast

Advertisements
Track Severe Weather on mobile